createdAt,value
2022-11-03T00:00:27.145Z,10.31
2022-11-03T00:05:48.943Z,10.18
2022-11-03T00:11:13.133Z,10.10
2022-11-03T00:16:34.955Z,9.96
2022-11-03T00:21:56.755Z,9.88
2022-11-03T00:27:18.570Z,9.84
2022-11-03T00:32:40.365Z,9.70
2022-11-03T00:38:02.137Z,9.72
2022-11-03T00:43:25.301Z,9.62
2022-11-03T00:48:47.541Z,9.48
2022-11-03T00:54:09.532Z,9.48
2022-11-03T00:59:31.323Z,9.33
2022-11-03T01:04:53.201Z,9.32
2022-11-03T01:10:15.070Z,9.26
2022-11-03T01:15:36.891Z,9.20
2022-11-03T01:20:58.695Z,9.09
2022-11-03T01:26:20.537Z,9.09
2022-11-03T01:31:43.039Z,9.05
2022-11-03T01:37:04.878Z,8.93
2022-11-03T01:42:26.677Z,8.91
2022-11-03T01:47:48.758Z,8.87
2022-11-03T01:53:12.475Z,8.78
2022-11-03T01:58:39.033Z,8.73
2022-11-03T02:04:11.085Z,8.64
2022-11-03T02:09:33.096Z,8.65
2022-11-03T02:15:01.174Z,8.62
2022-11-03T02:20:27.024Z,8.56
2022-11-03T02:25:57.342Z,8.56
2022-11-03T02:31:33.998Z,8.57
2022-11-03T02:37:03.620Z,8.50
2022-11-03T02:42:26.597Z,8.47
2022-11-03T02:47:50.794Z,8.44
2022-11-03T02:53:14.051Z,8.41
2022-11-03T02:59:00.988Z,8.30
2022-11-03T03:04:30.868Z,8.33
2022-11-03T03:10:00.775Z,8.31
2022-11-03T03:15:46.157Z,8.22
2022-11-03T03:21:23.678Z,8.11
2022-11-03T03:26:48.650Z,8.16
2022-11-03T03:32:12.845Z,8.10
2022-11-03T03:37:38.813Z,8.12
2022-11-03T03:43:03.121Z,8.04
2022-11-03T03:48:25.019Z,8.08
2022-11-03T03:53:50.693Z,8.11
2022-11-03T03:59:12.543Z,8.05
2022-11-03T04:04:34.435Z,8.01
2022-11-03T04:09:56.314Z,7.96
2022-11-03T04:15:18.268Z,7.90
2022-11-03T04:20:40.056Z,7.86
2022-11-03T04:26:02.213Z,7.82
2022-11-03T04:31:24.526Z,7.83
2022-11-03T04:36:46.330Z,7.74
2022-11-03T04:42:18.749Z,7.74
2022-11-03T04:47:40.565Z,7.68
2022-11-03T04:53:02.388Z,7.68
2022-11-03T04:58:32.687Z,7.65
2022-11-03T05:03:54.836Z,7.54
2022-11-03T05:09:22.994Z,7.58
2022-11-03T05:14:45.030Z,7.62
2022-11-03T05:20:45.276Z,7.59
2022-11-03T05:26:14.184Z,7.58
2022-11-03T05:31:37.215Z,7.58
2022-11-03T05:37:27.128Z,7.64
2022-11-03T05:43:00.923Z,7.66
2022-11-03T05:48:35.149Z,7.83
2022-11-03T05:54:00.116Z,8.00
2022-11-03T05:59:25.165Z,8.50
2022-11-03T06:04:46.991Z,10.21
2022-11-03T06:10:25.070Z,13.75
2022-11-03T06:16:26.958Z,16.45
2022-11-03T06:27:24.198Z,17.71
2022-11-03T06:32:46.302Z,17.89
2022-11-03T06:38:19.548Z,14.54
2022-11-03T06:43:42.428Z,14.13
2022-11-03T06:49:22.844Z,14.11
2022-11-03T06:54:48.438Z,14.99
2022-11-03T07:00:39.884Z,15.40
2022-11-03T07:06:15.496Z,15.99
2022-11-03T07:11:44.506Z,19.05
2022-11-03T07:17:14.398Z,22.96
2022-11-03T07:22:36.216Z,24.33
2022-11-03T07:27:58.114Z,26.40
2022-11-03T07:33:26.252Z,27.46
2022-11-03T07:38:51.610Z,27.51
2022-11-03T07:44:18.016Z,27.73
2022-11-03T07:49:40.948Z,28.03
2022-11-03T07:55:11.721Z,29.13
2022-11-03T08:00:33.555Z,28.73
2022-11-03T08:05:55.393Z,29.13
2022-11-03T08:11:17.250Z,28.29
2022-11-03T08:16:39.706Z,29.23
2022-11-03T08:22:01.723Z,28.86
2022-11-03T08:27:23.536Z,28.83
2022-11-03T08:32:45.379Z,29.58
2022-11-03T08:38:07.426Z,28.87
2022-11-03T08:43:29.805Z,29.76
2022-11-03T08:48:51.643Z,30.47
2022-11-03T08:54:13.482Z,29.77
2022-11-03T08:59:35.308Z,30.11
2022-11-03T09:04:57.395Z,28.60
2022-11-03T09:10:21.254Z,29.15
2022-11-03T09:15:45.328Z,28.68
2022-11-03T09:21:07.170Z,28.38
2022-11-03T09:26:29.004Z,28.35
2022-11-03T09:31:51.144Z,27.47
2022-11-03T09:37:13.022Z,27.37
2022-11-03T09:42:36.902Z,24.14
2022-11-03T09:47:59.123Z,20.01
2022-11-03T09:53:21.736Z,22.63
2022-11-03T09:58:43.559Z,20.02
2022-11-03T10:04:05.572Z,18.38
2022-11-03T10:09:29.481Z,17.18
2022-11-03T10:14:52.003Z,16.85
2022-11-03T10:20:16.320Z,16.55
2022-11-03T10:25:45.249Z,16.10
2022-11-03T10:31:20.850Z,15.25
2022-11-03T10:36:45.589Z,15.17
2022-11-03T10:42:23.445Z,15.26
2022-11-03T10:48:00.780Z,15.12
2022-11-03T10:53:22.926Z,14.85
2022-11-03T10:58:44.842Z,14.84
2022-11-03T11:04:06.790Z,14.79
2022-11-03T11:09:28.992Z,14.99
2022-11-03T11:14:59.197Z,14.94
2022-11-03T11:20:32.118Z,14.93
2022-11-03T11:26:09.290Z,14.82
2022-11-03T11:31:32.911Z,14.77
2022-11-03T11:36:54.683Z,14.75
2022-11-03T11:42:18.411Z,14.40
2022-11-03T11:47:46.566Z,14.88
2022-11-03T11:53:20.073Z,14.77
2022-11-03T11:58:44.129Z,14.92
2022-11-03T12:04:22.021Z,14.69
2022-11-03T12:09:43.848Z,14.79
2022-11-03T12:15:06.107Z,14.49
2022-11-03T12:20:35.401Z,14.83
2022-11-03T12:25:57.194Z,15.01
2022-11-03T12:31:19.089Z,15.02
2022-11-03T12:36:40.901Z,15.20
2022-11-03T12:42:02.994Z,14.83
2022-11-03T12:47:24.871Z,15.12
2022-11-03T12:52:46.675Z,14.93
2022-11-03T12:58:08.772Z,15.00
2022-11-03T13:03:30.806Z,14.88
2022-11-03T13:08:53.396Z,15.20
2022-11-03T13:14:15.379Z,15.21
2022-11-03T13:19:37.183Z,15.24
2022-11-03T13:24:59.015Z,15.18
2022-11-03T13:30:22.337Z,15.04
2022-11-03T13:35:44.218Z,15.21
2022-11-03T13:41:08.938Z,15.21
2022-11-03T13:46:31.141Z,14.95
2022-11-03T13:51:52.987Z,14.97
2022-11-03T14:08:38.501Z,14.34
2022-11-03T14:14:00.411Z,14.27
2022-11-03T14:19:23.667Z,14.08
2022-11-03T14:24:48.812Z,13.54
2022-11-03T14:30:11.634Z,13.89
2022-11-03T14:35:33.435Z,13.62
2022-11-03T14:40:55.342Z,13.58
2022-11-03T14:46:17.306Z,13.38
2022-11-03T14:51:39.257Z,13.21
2022-11-03T14:57:01.254Z,13.06
2022-11-03T15:02:23.186Z,12.85
2022-11-03T15:07:45.103Z,12.66
2022-11-03T15:13:07.164Z,12.49
2022-11-03T15:18:29.284Z,12.46
2022-11-03T15:29:32.932Z,12.16
2022-11-03T15:34:54.808Z,12.04
2022-11-03T15:40:16.955Z,12.02
2022-11-03T15:45:38.836Z,11.95
2022-11-03T15:51:00.681Z,11.85
2022-11-03T15:56:22.531Z,11.72
2022-11-03T16:01:44.625Z,11.56
2022-11-03T16:07:08.143Z,11.49
2022-11-03T16:12:30.670Z,11.41
2022-11-03T16:17:52.631Z,11.30
2022-11-03T16:23:14.575Z,11.16
2022-11-03T16:28:36.705Z,11.04
2022-11-03T16:33:58.642Z,11.03
2022-11-03T16:39:20.679Z,10.90
2022-11-03T16:44:42.541Z,10.72
2022-11-03T16:50:04.749Z,10.47
2022-11-03T16:55:26.572Z,10.36
2022-11-03T17:00:48.452Z,10.42
2022-11-03T17:06:10.371Z,10.37
2022-11-03T17:11:32.243Z,10.20
2022-11-03T17:16:54.065Z,9.90
2022-11-03T17:22:16.182Z,9.64
2022-11-03T17:27:51.258Z,9.39
2022-11-03T17:33:17.036Z,9.32
2022-11-03T17:38:38.959Z,9.23
2022-11-03T17:44:01.032Z,9.23
2022-11-03T17:49:23.119Z,9.03
2022-11-03T17:54:45.235Z,9.12
2022-11-03T18:00:10.735Z,9.09
2022-11-03T18:05:33.054Z,9.17
2022-11-03T18:10:55.001Z,9.12
2022-11-03T18:16:16.938Z,9.10
2022-11-03T18:21:39.140Z,8.97
2022-11-03T18:27:00.985Z,9.14
2022-11-03T18:32:22.923Z,8.98
2022-11-03T18:37:44.825Z,8.95
2022-11-03T18:43:23.277Z,8.80
2022-11-03T18:48:45.165Z,8.73
2022-11-03T18:54:12.710Z,8.59
2022-11-03T18:59:38.294Z,8.55
2022-11-03T19:05:00.233Z,8.51
2022-11-03T19:10:22.455Z,8.52
2022-11-03T19:15:44.357Z,8.43
2022-11-03T19:21:13.266Z,8.15
2022-11-03T19:26:43.725Z,8.06
2022-11-03T19:32:15.799Z,7.91
2022-11-03T19:37:37.826Z,8.29
2022-11-03T19:42:59.661Z,8.03
2022-11-03T19:48:24.591Z,8.02
2022-11-03T19:53:48.331Z,7.96
2022-11-03T19:59:12.086Z,8.17
2022-11-03T20:04:33.977Z,7.99
2022-11-03T20:09:55.852Z,8.00
2022-11-03T20:15:20.598Z,7.98
2022-11-03T20:20:44.712Z,7.98
2022-11-03T20:26:13.581Z,7.91
2022-11-03T20:31:35.427Z,7.96
2022-11-03T20:37:00.050Z,8.09
2022-11-03T20:42:26.592Z,8.21
2022-11-03T20:47:49.867Z,8.15
2022-11-03T20:53:15.330Z,8.21
2022-11-03T20:58:37.157Z,8.38
2022-11-03T21:04:00.875Z,8.15
2022-11-03T21:09:22.736Z,8.01
2022-11-03T21:14:44.765Z,8.02
2022-11-03T21:20:07.084Z,7.96
2022-11-03T21:25:28.897Z,7.94
2022-11-03T21:30:53.639Z,7.75
2022-11-03T21:36:15.843Z,7.67
2022-11-03T21:41:39.542Z,7.62
2022-11-03T21:47:01.357Z,7.44
2022-11-03T21:52:24.110Z,7.51
2022-11-03T21:57:45.954Z,7.46
2022-11-03T22:03:08.192Z,7.32
2022-11-03T22:08:30.450Z,7.63
2022-11-03T22:13:55.935Z,7.48
2022-11-03T22:19:20.344Z,7.48
2022-11-03T22:24:42.345Z,7.47
2022-11-03T22:30:05.043Z,7.37
2022-11-03T22:35:26.861Z,7.41
2022-11-03T22:40:48.730Z,7.41
2022-11-03T22:46:12.235Z,7.21
2022-11-03T22:51:34.066Z,7.17
2022-11-03T22:56:55.931Z,7.26
2022-11-03T23:02:17.828Z,7.21
2022-11-03T23:07:41.455Z,7.11
2022-11-03T23:13:03.676Z,7.04
2022-11-03T23:18:25.449Z,7.04
2022-11-03T23:23:47.277Z,6.94
2022-11-03T23:29:10.378Z,6.99
2022-11-03T23:34:32.295Z,6.98
2022-11-03T23:39:54.103Z,6.96
2022-11-03T23:45:16.024Z,7.07
2022-11-03T23:50:38.771Z,6.96
2022-11-03T23:56:00.864Z,6.76
